sensor_id;sensor_type;location;lat;lon;timestamp;temperature;humidity
3994;DHT22;2011;48.238;13.948;2023-05-29T00:00:59;17.10;69.70
3994;DHT22;2011;48.238;13.948;2023-05-29T00:03:26;17.00;70.20
3994;DHT22;2011;48.238;13.948;2023-05-29T00:05:53;17.00;70.40
3994;DHT22;2011;48.238;13.948;2023-05-29T00:08:21;16.90;69.90
3994;DHT22;2011;48.238;13.948;2023-05-29T00:10:48;16.90;69.80
3994;DHT22;2011;48.238;13.948;2023-05-29T00:13:15;16.90;69.40
3994;DHT22;2011;48.238;13.948;2023-05-29T00:15:42;16.80;69.50
3994;DHT22;2011;48.238;13.948;2023-05-29T00:18:09;16.80;69.40
3994;DHT22;2011;48.238;13.948;2023-05-29T00:20:36;16.70;69.70
3994;DHT22;2011;48.238;13.948;2023-05-29T00:23:03;16.80;69.90
3994;DHT22;2011;48.238;13.948;2023-05-29T00:25:32;16.70;69.80
3994;DHT22;2011;48.238;13.948;2023-05-29T00:27:59;16.70;71.10
3994;DHT22;2011;48.238;13.948;2023-05-29T00:30:26;16.60;71.30
3994;DHT22;2011;48.238;13.948;2023-05-29T00:32:53;16.50;71.70
3994;DHT22;2011;48.238;13.948;2023-05-29T00:35:20;16.50;72.30
3994;DHT22;2011;48.238;13.948;2023-05-29T00:37:47;16.50;72.40
3994;DHT22;2011;48.238;13.948;2023-05-29T00:40:14;16.40;72.90
3994;DHT22;2011;48.238;13.948;2023-05-29T00:42:42;16.40;73.10
3994;DHT22;2011;48.238;13.948;2023-05-29T00:45:10;16.30;73.40
3994;DHT22;2011;48.238;13.948;2023-05-29T00:47:39;16.30;73.30
3994;DHT22;2011;48.238;13.948;2023-05-29T00:50:06;16.20;72.60
3994;DHT22;2011;48.238;13.948;2023-05-29T00:52:35;16.20;73.00
3994;DHT22;2011;48.238;13.948;2023-05-29T00:55:02;16.20;74.00
3994;DHT22;2011;48.238;13.948;2023-05-29T00:57:30;16.10;73.60
3994;DHT22;2011;48.238;13.948;2023-05-29T00:59:58;16.10;73.80
3994;DHT22;2011;48.238;13.948;2023-05-29T01:02:28;16.10;73.40
3994;DHT22;2011;48.238;13.948;2023-05-29T01:04:57;16.10;73.40
3994;DHT22;2011;48.238;13.948;2023-05-29T01:07:24;16.10;74.70
3994;DHT22;2011;48.238;13.948;2023-05-29T01:09:51;16.00;75.80
3994;DHT22;2011;48.238;13.948;2023-05-29T01:12:27;15.90;77.10
3994;DHT22;2011;48.238;13.948;2023-05-29T01:15:20;15.80;78.60
3994;DHT22;2011;48.238;13.948;2023-05-29T01:18:01;15.70;79.80
3994;DHT22;2011;48.238;13.948;2023-05-29T01:20:35;15.70;79.70
3994;DHT22;2011;48.238;13.948;2023-05-29T01:23:20;15.50;80.40
3994;DHT22;2011;48.238;13.948;2023-05-29T01:26:32;15.40;81.90
3994;DHT22;2011;48.238;13.948;2023-05-29T01:29:02;15.20;84.70
3994;DHT22;2011;48.238;13.948;2023-05-29T01:31:31;15.20;84.00
3994;DHT22;2011;48.238;13.948;2023-05-29T01:33:59;15.10;83.90
3994;DHT22;2011;48.238;13.948;2023-05-29T01:36:27;15.10;84.50
3994;DHT22;2011;48.238;13.948;2023-05-29T01:38:56;15.10;85.10
3994;DHT22;2011;48.238;13.948;2023-05-29T01:41:24;15.10;85.40
3994;DHT22;2011;48.238;13.948;2023-05-29T01:43:54;15.10;86.10
3994;DHT22;2011;48.238;13.948;2023-05-29T01:46:23;15.10;86.70
3994;DHT22;2011;48.238;13.948;2023-05-29T01:48:51;15.10;87.30
3994;DHT22;2011;48.238;13.948;2023-05-29T01:51:19;15.00;88.30
3994;DHT22;2011;48.238;13.948;2023-05-29T01:53:46;15.00;88.90
3994;DHT22;2011;48.238;13.948;2023-05-29T01:56:13;14.90;89.80
3994;DHT22;2011;48.238;13.948;2023-05-29T01:58:41;14.90;90.10
3994;DHT22;2011;48.238;13.948;2023-05-29T02:01:10;14.90;89.40
3994;DHT22;2011;48.238;13.948;2023-05-29T02:03:36;14.80;89.00
3994;DHT22;2011;48.238;13.948;2023-05-29T02:06:03;14.70;89.40
3994;DHT22;2011;48.238;13.948;2023-05-29T02:08:32;14.70;90.40
3994;DHT22;2011;48.238;13.948;2023-05-29T02:10:59;14.60;91.00
3994;DHT22;2011;48.238;13.948;2023-05-29T02:13:26;14.60;91.20
3994;DHT22;2011;48.238;13.948;2023-05-29T02:15:52;14.50;91.70
3994;DHT22;2011;48.238;13.948;2023-05-29T02:18:21;14.50;91.90
3994;DHT22;2011;48.238;13.948;2023-05-29T02:20:48;14.40;92.20
3994;DHT22;2011;48.238;13.948;2023-05-29T02:23:14;14.40;92.40
3994;DHT22;2011;48.238;13.948;2023-05-29T02:25:42;14.30;92.90
3994;DHT22;2011;48.238;13.948;2023-05-29T02:28:09;14.20;92.80
3994;DHT22;2011;48.238;13.948;2023-05-29T02:30:36;14.20;92.40
3994;DHT22;2011;48.238;13.948;2023-05-29T02:33:03;14.20;92.70
3994;DHT22;2011;48.238;13.948;2023-05-29T02:35:31;14.20;92.90
3994;DHT22;2011;48.238;13.948;2023-05-29T02:37:58;14.20;92.80
3994;DHT22;2011;48.238;13.948;2023-05-29T02:40:25;14.20;92.60
3994;DHT22;2011;48.238;13.948;2023-05-29T02:42:52;14.10;92.60
3994;DHT22;2011;48.238;13.948;2023-05-29T02:45:19;14.10;92.70
3994;DHT22;2011;48.238;13.948;2023-05-29T02:47:46;14.10;92.90
3994;DHT22;2011;48.238;13.948;2023-05-29T02:50:13;14.00;93.10
3994;DHT22;2011;48.238;13.948;2023-05-29T02:52:41;14.00;93.40
3994;DHT22;2011;48.238;13.948;2023-05-29T02:55:08;14.00;93.60
3994;DHT22;2011;48.238;13.948;2023-05-29T02:57:35;14.00;93.40
3994;DHT22;2011;48.238;13.948;2023-05-29T03:00:02;13.90;93.20
3994;DHT22;2011;48.238;13.948;2023-05-29T03:02:32;13.90;93.20
3994;DHT22;2011;48.238;13.948;2023-05-29T03:05:00;13.90;93.20
3994;DHT22;2011;48.238;13.948;2023-05-29T03:07:27;13.90;93.20
3994;DHT22;2011;48.238;13.948;2023-05-29T03:09:55;13.90;93.20
3994;DHT22;2011;48.238;13.948;2023-05-29T03:12:23;13.80;93.70
3994;DHT22;2011;48.238;13.948;2023-05-29T03:14:50;13.80;93.90
3994;DHT22;2011;48.238;13.948;2023-05-29T03:17:17;13.70;94.90
3994;DHT22;2011;48.238;13.948;2023-05-29T03:19:44;13.60;95.40
3994;DHT22;2011;48.238;13.948;2023-05-29T03:22:11;13.60;95.50
3994;DHT22;2011;48.238;13.948;2023-05-29T03:24:38;13.60;95.10
3994;DHT22;2011;48.238;13.948;2023-05-29T03:27:07;13.60;95.10
3994;DHT22;2011;48.238;13.948;2023-05-29T03:29:34;13.50;95.10
3994;DHT22;2011;48.238;13.948;2023-05-29T03:32:01;13.50;95.30
3994;DHT22;2011;48.238;13.948;2023-05-29T03:34:28;13.50;95.40
3994;DHT22;2011;48.238;13.948;2023-05-29T03:36:56;13.40;95.50
3994;DHT22;2011;48.238;13.948;2023-05-29T03:39:23;13.40;96.00
3994;DHT22;2011;48.238;13.948;2023-05-29T03:41:50;13.40;96.60
3994;DHT22;2011;48.238;13.948;2023-05-29T03:44:18;13.40;97.10
3994;DHT22;2011;48.238;13.948;2023-05-29T03:46:46;13.40;97.60
3994;DHT22;2011;48.238;13.948;2023-05-29T03:49:13;13.50;96.90
3994;DHT22;2011;48.238;13.948;2023-05-29T03:51:40;13.50;97.00
3994;DHT22;2011;48.238;13.948;2023-05-29T03:54:07;13.50;97.40
3994;DHT22;2011;48.238;13.948;2023-05-29T03:56:34;13.60;98.00
3994;DHT22;2011;48.238;13.948;2023-05-29T03:59:02;13.50;98.30
3994;DHT22;2011;48.238;13.948;2023-05-29T04:01:30;13.50;98.90
3994;DHT22;2011;48.238;13.948;2023-05-29T04:03:57;13.50;98.90
3994;DHT22;2011;48.238;13.948;2023-05-29T04:06:24;13.50;98.80
3994;DHT22;2011;48.238;13.948;2023-05-29T04:08:51;13.50;99.40
3994;DHT22;2011;48.238;13.948;2023-05-29T04:11:18;13.50;99.40
3994;DHT22;2011;48.238;13.948;2023-05-29T04:13:46;13.60;99.40
3994;DHT22;2011;48.238;13.948;2023-05-29T04:16:14;13.60;99.10
3994;DHT22;2011;48.238;13.948;2023-05-29T04:18:43;13.60;99.50
3994;DHT22;2011;48.238;13.948;2023-05-29T04:21:10;13.60;99.90
3994;DHT22;2011;48.238;13.948;2023-05-29T04:23:37;13.60;99.90
3994;DHT22;2011;48.238;13.948;2023-05-29T04:26:04;13.60;99.90
3994;DHT22;2011;48.238;13.948;2023-05-29T04:28:31;13.60;99.90
3994;DHT22;2011;48.238;13.948;2023-05-29T04:30:58;13.60;99.90
3994;DHT22;2011;48.238;13.948;2023-05-29T04:33:26;13.70;99.90
3994;DHT22;2011;48.238;13.948;2023-05-29T04:35:55;13.70;99.90
3994;DHT22;2011;48.238;13.948;2023-05-29T04:38:22;13.80;99.90
3994;DHT22;2011;48.238;13.948;2023-05-29T04:40:51;13.80;99.90
3994;DHT22;2011;48.238;13.948;2023-05-29T04:43:18;13.80;99.90
3994;DHT22;2011;48.238;13.948;2023-05-29T04:45:44;13.80;99.90
3994;DHT22;2011;48.238;13.948;2023-05-29T04:48:11;13.80;99.90
3994;DHT22;2011;48.238;13.948;2023-05-29T04:50:38;13.80;99.90
3994;DHT22;2011;48.238;13.948;2023-05-29T04:53:07;13.90;99.90
3994;DHT22;2011;48.238;13.948;2023-05-29T04:55:34;14.00;99.90
3994;DHT22;2011;48.238;13.948;2023-05-29T04:58:00;14.10;99.90
3994;DHT22;2011;48.238;13.948;2023-05-29T05:00:27;14.10;99.90
3994;DHT22;2011;48.238;13.948;2023-05-29T05:02:54;14.20;99.90
3994;DHT22;2011;48.238;13.948;2023-05-29T05:05:21;14.40;99.90
3994;DHT22;2011;48.238;13.948;2023-05-29T05:07:48;14.40;99.90
3994;DHT22;2011;48.238;13.948;2023-05-29T05:10:17;14.50;99.90
3994;DHT22;2011;48.238;13.948;2023-05-29T05:12:44;14.60;99.90
3994;DHT22;2011;48.238;13.948;2023-05-29T05:15:11;14.70;99.90
3994;DHT22;2011;48.238;13.948;2023-05-29T05:17:37;14.90;99.90
3994;DHT22;2011;48.238;13.948;2023-05-29T05:20:06;15.00;99.90
3994;DHT22;2011;48.238;13.948;2023-05-29T05:22:34;15.10;99.90
3994;DHT22;2011;48.238;13.948;2023-05-29T05:25:01;15.20;99.90
3994;DHT22;2011;48.238;13.948;2023-05-29T05:27:30;15.40;99.90
3994;DHT22;2011;48.238;13.948;2023-05-29T05:29:57;15.60;99.90
3994;DHT22;2011;48.238;13.948;2023-05-29T05:32:24;15.70;99.90
3994;DHT22;2011;48.238;13.948;2023-05-29T05:34:51;15.90;99.90
3994;DHT22;2011;48.238;13.948;2023-05-29T05:37:18;16.00;99.90
3994;DHT22;2011;48.238;13.948;2023-05-29T05:39:48;16.20;99.90
3994;DHT22;2011;48.238;13.948;2023-05-29T05:42:15;16.30;99.90
3994;DHT22;2011;48.238;13.948;2023-05-29T05:44:43;16.40;99.90
3994;DHT22;2011;48.238;13.948;2023-05-29T05:47:10;16.50;99.60
3994;DHT22;2011;48.238;13.948;2023-05-29T05:49:37;16.50;97.00
3994;DHT22;2011;48.238;13.948;2023-05-29T05:52:05;16.60;96.80
3994;DHT22;2011;48.238;13.948;2023-05-29T05:54:32;16.60;95.10
3994;DHT22;2011;48.238;13.948;2023-05-29T05:56:59;16.70;94.80
3994;DHT22;2011;48.238;13.948;2023-05-29T05:59:26;16.80;94.00
3994;DHT22;2011;48.238;13.948;2023-05-29T06:01:55;16.90;94.00
3994;DHT22;2011;48.238;13.948;2023-05-29T06:04:21;17.00;93.40
3994;DHT22;2011;48.238;13.948;2023-05-29T06:06:48;17.20;93.20
3994;DHT22;2011;48.238;13.948;2023-05-29T06:09:15;17.30;93.20
3994;DHT22;2011;48.238;13.948;2023-05-29T06:11:42;17.30;92.20
3994;DHT22;2011;48.238;13.948;2023-05-29T06:14:09;17.40;92.30
3994;DHT22;2011;48.238;13.948;2023-05-29T06:16:36;17.50;92.20
3994;DHT22;2011;48.238;13.948;2023-05-29T06:19:04;17.60;91.50
3994;DHT22;2011;48.238;13.948;2023-05-29T06:21:31;17.70;91.50
3994;DHT22;2011;48.238;13.948;2023-05-29T06:23:58;17.80;91.60
3994;DHT22;2011;48.238;13.948;2023-05-29T06:26:25;17.80;91.60
3994;DHT22;2011;48.238;13.948;2023-05-29T06:28:52;17.90;91.60
3994;DHT22;2011;48.238;13.948;2023-05-29T06:31:19;18.00;91.90
3994;DHT22;2011;48.238;13.948;2023-05-29T06:33:46;18.10;91.80
3994;DHT22;2011;48.238;13.948;2023-05-29T06:36:15;18.30;91.40
3994;DHT22;2011;48.238;13.948;2023-05-29T06:38:46;18.40;91.40
3994;DHT22;2011;48.238;13.948;2023-05-29T06:41:13;18.50;91.10
3994;DHT22;2011;48.238;13.948;2023-05-29T06:43:40;18.60;91.10
3994;DHT22;2011;48.238;13.948;2023-05-29T06:46:07;18.70;91.40
3994;DHT22;2011;48.238;13.948;2023-05-29T06:48:34;18.70;91.00
3994;DHT22;2011;48.238;13.948;2023-05-29T06:51:01;18.90;90.70
3994;DHT22;2011;48.238;13.948;2023-05-29T06:53:36;19.00;91.60
3994;DHT22;2011;48.238;13.948;2023-05-29T06:56:03;19.20;91.60
3994;DHT22;2011;48.238;13.948;2023-05-29T06:58:31;19.20;90.80
3994;DHT22;2011;48.238;13.948;2023-05-29T07:00:58;19.30;91.10
3994;DHT22;2011;48.238;13.948;2023-05-29T07:03:26;19.40;90.10
3994;DHT22;2011;48.238;13.948;2023-05-29T07:05:53;19.50;89.00
3994;DHT22;2011;48.238;13.948;2023-05-29T07:08:20;19.60;88.90
3994;DHT22;2011;48.238;13.948;2023-05-29T07:10:48;19.60;88.10
3994;DHT22;2011;48.238;13.948;2023-05-29T07:13:16;19.80;91.00
3994;DHT22;2011;48.238;13.948;2023-05-29T07:15:43;19.90;90.70
3994;DHT22;2011;48.238;13.948;2023-05-29T07:18:10;20.10;90.20
3994;DHT22;2011;48.238;13.948;2023-05-29T07:20:37;20.20;89.50
3994;DHT22;2011;48.238;13.948;2023-05-29T07:23:04;20.30;88.40
3994;DHT22;2011;48.238;13.948;2023-05-29T07:25:31;20.40;87.40
3994;DHT22;2011;48.238;13.948;2023-05-29T07:27:59;20.60;87.40
3994;DHT22;2011;48.238;13.948;2023-05-29T07:30:26;20.60;85.80
3994;DHT22;2011;48.238;13.948;2023-05-29T07:32:55;20.50;85.60
3994;DHT22;2011;48.238;13.948;2023-05-29T07:35:22;20.70;85.60
3994;DHT22;2011;48.238;13.948;2023-05-29T07:37:49;20.70;83.70
3994;DHT22;2011;48.238;13.948;2023-05-29T07:40:18;20.80;84.70
3994;DHT22;2011;48.238;13.948;2023-05-29T07:42:45;20.80;82.30
3994;DHT22;2011;48.238;13.948;2023-05-29T07:45:13;20.70;81.80
3994;DHT22;2011;48.238;13.948;2023-05-29T07:47:40;20.80;83.00
3994;DHT22;2011;48.238;13.948;2023-05-29T07:50:07;21.00;83.20
3994;DHT22;2011;48.238;13.948;2023-05-29T07:52:35;21.00;80.90
3994;DHT22;2011;48.238;13.948;2023-05-29T07:55:01;21.00;80.80
3994;DHT22;2011;48.238;13.948;2023-05-29T07:57:28;21.00;79.70
3994;DHT22;2011;48.238;13.948;2023-05-29T07:59:56;20.90;79.70
3994;DHT22;2011;48.238;13.948;2023-05-29T08:02:24;21.10;80.10
3994;DHT22;2011;48.238;13.948;2023-05-29T08:04:52;21.20;80.10
3994;DHT22;2011;48.238;13.948;2023-05-29T08:07:18;21.30;79.50
3994;DHT22;2011;48.238;13.948;2023-05-29T08:09:45;21.40;77.50
3994;DHT22;2011;48.238;13.948;2023-05-29T08:12:12;21.50;79.50
3994;DHT22;2011;48.238;13.948;2023-05-29T08:14:39;21.60;80.00
3994;DHT22;2011;48.238;13.948;2023-05-29T08:17:06;21.80;80.20
3994;DHT22;2011;48.238;13.948;2023-05-29T08:19:34;21.90;78.60
3994;DHT22;2011;48.238;13.948;2023-05-29T08:22:01;21.90;76.30
3994;DHT22;2011;48.238;13.948;2023-05-29T08:24:28;21.90;77.30
3994;DHT22;2011;48.238;13.948;2023-05-29T08:26:55;22.00;75.50
3994;DHT22;2011;48.238;13.948;2023-05-29T08:29:23;22.10;77.10
3994;DHT22;2011;48.238;13.948;2023-05-29T08:31:49;22.20;75.50
3994;DHT22;2011;48.238;13.948;2023-05-29T08:34:16;22.30;74.90
3994;DHT22;2011;48.238;13.948;2023-05-29T08:36:44;22.50;74.60
3994;DHT22;2011;48.238;13.948;2023-05-29T08:39:11;22.60;74.80
3994;DHT22;2011;48.238;13.948;2023-05-29T08:41:44;22.70;73.90
3994;DHT22;2011;48.238;13.948;2023-05-29T08:44:14;22.80;72.60
3994;DHT22;2011;48.238;13.948;2023-05-29T08:46:43;22.90;72.30
3994;DHT22;2011;48.238;13.948;2023-05-29T08:49:15;22.90;72.20
3994;DHT22;2011;48.238;13.948;2023-05-29T08:51:47;22.90;70.40
3994;DHT22;2011;48.238;13.948;2023-05-29T08:54:16;23.00;70.80
3994;DHT22;2011;48.238;13.948;2023-05-29T08:56:43;23.10;69.30
3994;DHT22;2011;48.238;13.948;2023-05-29T08:59:11;23.00;69.00
3994;DHT22;2011;48.238;13.948;2023-05-29T09:01:38;23.20;68.10
3994;DHT22;2011;48.238;13.948;2023-05-29T09:04:06;23.20;68.50
3994;DHT22;2011;48.238;13.948;2023-05-29T09:06:33;23.30;69.20
3994;DHT22;2011;48.238;13.948;2023-05-29T09:09:02;23.40;68.30
3994;DHT22;2011;48.238;13.948;2023-05-29T09:11:31;23.50;67.20
3994;DHT22;2011;48.238;13.948;2023-05-29T09:13:59;23.60;67.60
3994;DHT22;2011;48.238;13.948;2023-05-29T09:16:27;23.60;67.70
3994;DHT22;2011;48.238;13.948;2023-05-29T09:19:04;23.80;69.70
3994;DHT22;2011;48.238;13.948;2023-05-29T09:21:32;23.90;66.60
3994;DHT22;2011;48.238;13.948;2023-05-29T09:24:05;24.00;65.60
3994;DHT22;2011;48.238;13.948;2023-05-29T09:26:32;24.00;67.60
3994;DHT22;2011;48.238;13.948;2023-05-29T09:28:59;24.10;67.00
3994;DHT22;2011;48.238;13.948;2023-05-29T09:31:26;24.10;67.10
3994;DHT22;2011;48.238;13.948;2023-05-29T09:33:54;24.20;66.90
3994;DHT22;2011;48.238;13.948;2023-05-29T09:36:22;24.30;68.50
3994;DHT22;2011;48.238;13.948;2023-05-29T09:38:49;24.40;66.30
3994;DHT22;2011;48.238;13.948;2023-05-29T09:41:22;24.60;66.50
3994;DHT22;2011;48.238;13.948;2023-05-29T09:43:49;24.70;66.80
3994;DHT22;2011;48.238;13.948;2023-05-29T09:46:16;24.70;64.90
3994;DHT22;2011;48.238;13.948;2023-05-29T09:48:44;24.80;65.80
3994;DHT22;2011;48.238;13.948;2023-05-29T09:51:20;24.80;61.00
3994;DHT22;2011;48.238;13.948;2023-05-29T09:53:47;24.80;64.30
3994;DHT22;2011;48.238;13.948;2023-05-29T09:56:16;24.90;63.90
3994;DHT22;2011;48.238;13.948;2023-05-29T09:58:45;24.90;62.80
3994;DHT22;2011;48.238;13.948;2023-05-29T10:01:13;25.00;63.50
3994;DHT22;2011;48.238;13.948;2023-05-29T10:03:41;25.20;63.60
3994;DHT22;2011;48.238;13.948;2023-05-29T10:06:10;25.30;64.20
3994;DHT22;2011;48.238;13.948;2023-05-29T10:08:44;25.30;62.10
3994;DHT22;2011;48.238;13.948;2023-05-29T10:11:14;25.40;62.70
3994;DHT22;2011;48.238;13.948;2023-05-29T10:13:44;25.50;63.10
3994;DHT22;2011;48.238;13.948;2023-05-29T10:16:14;25.50;60.60
3994;DHT22;2011;48.238;13.948;2023-05-29T10:18:43;25.40;59.70
3994;DHT22;2011;48.238;13.948;2023-05-29T10:21:12;25.40;61.20
3994;DHT22;2011;48.238;13.948;2023-05-29T10:23:42;25.40;60.50
3994;DHT22;2011;48.238;13.948;2023-05-29T10:26:12;25.40;60.90
3994;DHT22;2011;48.238;13.948;2023-05-29T10:28:44;25.40;61.30
3994;DHT22;2011;48.238;13.948;2023-05-29T10:31:18;25.50;61.30
3994;DHT22;2011;48.238;13.948;2023-05-29T10:34:02;25.60;61.90
3994;DHT22;2011;48.238;13.948;2023-05-29T10:36:34;25.60;60.30
3994;DHT22;2011;48.238;13.948;2023-05-29T10:39:03;25.60;59.40
3994;DHT22;2011;48.238;13.948;2023-05-29T10:41:31;25.70;58.10
3994;DHT22;2011;48.238;13.948;2023-05-29T10:44:00;25.80;60.20
3994;DHT22;2011;48.238;13.948;2023-05-29T10:49:35;26.00;55.90
3994;DHT22;2011;48.238;13.948;2023-05-29T10:52:04;26.10;56.00
3994;DHT22;2011;48.238;13.948;2023-05-29T10:54:41;26.20;56.50
3994;DHT22;2011;48.238;13.948;2023-05-29T10:57:17;26.20;54.50
3994;DHT22;2011;48.238;13.948;2023-05-29T10:59:45;26.30;54.00
3994;DHT22;2011;48.238;13.948;2023-05-29T11:02:17;26.30;55.00
3994;DHT22;2011;48.238;13.948;2023-05-29T11:05:04;26.40;55.10
3994;DHT22;2011;48.238;13.948;2023-05-29T11:07:37;26.50;54.40
3994;DHT22;2011;48.238;13.948;2023-05-29T11:10:17;26.50;54.70
3994;DHT22;2011;48.238;13.948;2023-05-29T11:12:57;26.40;53.90
3994;DHT22;2011;48.238;13.948;2023-05-29T11:15:25;26.40;55.30
3994;DHT22;2011;48.238;13.948;2023-05-29T11:17:52;26.50;56.10
3994;DHT22;2011;48.238;13.948;2023-05-29T11:20:37;26.50;52.20
3994;DHT22;2011;48.238;13.948;2023-05-29T11:23:08;26.60;53.10
3994;DHT22;2011;48.238;13.948;2023-05-29T11:25:44;26.70;55.40
3994;DHT22;2011;48.238;13.948;2023-05-29T11:28:12;26.80;53.80
3994;DHT22;2011;48.238;13.948;2023-05-29T11:30:47;26.80;53.40
3994;DHT22;2011;48.238;13.948;2023-05-29T11:33:23;26.80;53.40
3994;DHT22;2011;48.238;13.948;2023-05-29T11:35:56;27.00;54.80
3994;DHT22;2011;48.238;13.948;2023-05-29T11:38:24;27.10;53.30
3994;DHT22;2011;48.238;13.948;2023-05-29T11:40:52;27.00;51.20
3994;DHT22;2011;48.238;13.948;2023-05-29T11:43:19;27.10;52.40
3994;DHT22;2011;48.238;13.948;2023-05-29T11:45:46;27.40;52.80
3994;DHT22;2011;48.238;13.948;2023-05-29T11:48:13;27.40;52.80
3994;DHT22;2011;48.238;13.948;2023-05-29T11:50:40;27.50;52.60
3994;DHT22;2011;48.238;13.948;2023-05-29T11:53:08;27.50;52.90
3994;DHT22;2011;48.238;13.948;2023-05-29T11:55:35;27.60;53.60
3994;DHT22;2011;48.238;13.948;2023-05-29T11:58:04;27.60;52.10
3994;DHT22;2011;48.238;13.948;2023-05-29T12:00:32;27.70;54.00
3994;DHT22;2011;48.238;13.948;2023-05-29T12:02:59;27.70;53.00
3994;DHT22;2011;48.238;13.948;2023-05-29T12:05:29;27.70;52.30
3994;DHT22;2011;48.238;13.948;2023-05-29T12:07:57;27.70;53.00
3994;DHT22;2011;48.238;13.948;2023-05-29T12:10:28;27.80;54.40
3994;DHT22;2011;48.238;13.948;2023-05-29T12:12:56;27.80;52.80
3994;DHT22;2011;48.238;13.948;2023-05-29T12:15:23;27.70;52.80
3994;DHT22;2011;48.238;13.948;2023-05-29T12:17:51;27.60;52.70
3994;DHT22;2011;48.238;13.948;2023-05-29T12:20:18;27.50;52.50
3994;DHT22;2011;48.238;13.948;2023-05-29T12:22:46;27.60;52.70
3994;DHT22;2011;48.238;13.948;2023-05-29T12:25:14;27.80;52.80
3994;DHT22;2011;48.238;13.948;2023-05-29T12:27:44;27.90;51.80
3994;DHT22;2011;48.238;13.948;2023-05-29T12:30:13;27.90;50.10
3994;DHT22;2011;48.238;13.948;2023-05-29T12:32:42;28.10;50.90
3994;DHT22;2011;48.238;13.948;2023-05-29T12:35:16;28.20;51.50
3994;DHT22;2011;48.238;13.948;2023-05-29T12:37:48;28.20;52.30
3994;DHT22;2011;48.238;13.948;2023-05-29T12:40:17;28.20;50.30
3994;DHT22;2011;48.238;13.948;2023-05-29T12:42:46;27.90;49.50
3994;DHT22;2011;48.238;13.948;2023-05-29T12:45:13;27.60;49.00
3994;DHT22;2011;48.238;13.948;2023-05-29T12:47:45;27.50;49.40
3994;DHT22;2011;48.238;13.948;2023-05-29T12:50:20;27.50;49.50
3994;DHT22;2011;48.238;13.948;2023-05-29T12:52:53;27.30;51.10
3994;DHT22;2011;48.238;13.948;2023-05-29T12:55:20;27.40;51.90
3994;DHT22;2011;48.238;13.948;2023-05-29T12:57:48;27.80;52.50
3994;DHT22;2011;48.238;13.948;2023-05-29T13:00:16;28.00;52.80
3994;DHT22;2011;48.238;13.948;2023-05-29T13:02:43;28.40;53.30
3994;DHT22;2011;48.238;13.948;2023-05-29T13:05:10;28.60;52.50
3994;DHT22;2011;48.238;13.948;2023-05-29T13:07:37;28.80;52.90
3994;DHT22;2011;48.238;13.948;2023-05-29T13:10:05;28.90;50.00
3994;DHT22;2011;48.238;13.948;2023-05-29T13:12:32;29.00;52.60
3994;DHT22;2011;48.238;13.948;2023-05-29T13:15:00;29.10;52.40
3994;DHT22;2011;48.238;13.948;2023-05-29T13:17:27;29.20;50.70
3994;DHT22;2011;48.238;13.948;2023-05-29T13:19:54;29.20;49.10
3994;DHT22;2011;48.238;13.948;2023-05-29T13:22:21;29.30;50.70
3994;DHT22;2011;48.238;13.948;2023-05-29T13:24:48;29.10;50.70
3994;DHT22;2011;48.238;13.948;2023-05-29T13:27:15;29.20;52.00
3994;DHT22;2011;48.238;13.948;2023-05-29T13:29:42;29.40;51.50
3994;DHT22;2011;48.238;13.948;2023-05-29T13:32:10;29.40;50.10
3994;DHT22;2011;48.238;13.948;2023-05-29T13:34:37;29.40;50.30
3994;DHT22;2011;48.238;13.948;2023-05-29T13:37:04;29.40;50.40
3994;DHT22;2011;48.238;13.948;2023-05-29T13:39:31;29.50;51.90
3994;DHT22;2011;48.238;13.948;2023-05-29T13:41:58;29.40;50.10
3994;DHT22;2011;48.238;13.948;2023-05-29T13:44:26;29.30;49.90
3994;DHT22;2011;48.238;13.948;2023-05-29T13:46:52;29.10;47.60
3994;DHT22;2011;48.238;13.948;2023-05-29T13:49:21;29.10;47.50
3994;DHT22;2011;48.238;13.948;2023-05-29T13:51:48;29.10;46.80
3994;DHT22;2011;48.238;13.948;2023-05-29T13:54:16;29.20;46.60
3994;DHT22;2011;48.238;13.948;2023-05-29T13:56:43;29.10;46.10
3994;DHT22;2011;48.238;13.948;2023-05-29T13:59:10;29.00;47.20
3994;DHT22;2011;48.238;13.948;2023-05-29T14:01:37;29.10;46.50
3994;DHT22;2011;48.238;13.948;2023-05-29T14:04:03;29.30;47.90
3994;DHT22;2011;48.238;13.948;2023-05-29T14:06:33;29.40;48.20
3994;DHT22;2011;48.238;13.948;2023-05-29T14:09:02;29.50;47.20
3994;DHT22;2011;48.238;13.948;2023-05-29T14:11:29;29.60;46.80
3994;DHT22;2011;48.238;13.948;2023-05-29T14:13:56;29.50;48.70
3994;DHT22;2011;48.238;13.948;2023-05-29T14:16:23;29.70;48.70
3994;DHT22;2011;48.238;13.948;2023-05-29T14:18:49;29.70;48.20
3994;DHT22;2011;48.238;13.948;2023-05-29T14:21:16;29.90;48.90
3994;DHT22;2011;48.238;13.948;2023-05-29T14:23:46;30.10;48.10
3994;DHT22;2011;48.238;13.948;2023-05-29T14:26:13;30.20;49.80
3994;DHT22;2011;48.238;13.948;2023-05-29T14:28:40;30.30;49.40
3994;DHT22;2011;48.238;13.948;2023-05-29T14:31:07;30.40;48.70
3994;DHT22;2011;48.238;13.948;2023-05-29T14:33:34;30.50;48.00
3994;DHT22;2011;48.238;13.948;2023-05-29T14:36:02;30.30;46.40
3994;DHT22;2011;48.238;13.948;2023-05-29T14:38:29;30.40;46.50
3994;DHT22;2011;48.238;13.948;2023-05-29T14:40:57;30.40;46.50
3994;DHT22;2011;48.238;13.948;2023-05-29T14:43:24;30.40;47.40
3994;DHT22;2011;48.238;13.948;2023-05-29T14:45:51;30.50;48.50
3994;DHT22;2011;48.238;13.948;2023-05-29T14:48:18;30.60;48.40
3994;DHT22;2011;48.238;13.948;2023-05-29T14:50:45;30.80;48.30
3994;DHT22;2011;48.238;13.948;2023-05-29T14:53:12;30.90;48.20
3994;DHT22;2011;48.238;13.948;2023-05-29T14:55:39;30.70;46.50
3994;DHT22;2011;48.238;13.948;2023-05-29T14:58:07;30.20;46.60
3994;DHT22;2011;48.238;13.948;2023-05-29T15:00:34;29.80;46.20
3994;DHT22;2011;48.238;13.948;2023-05-29T15:03:01;29.80;47.10
3994;DHT22;2011;48.238;13.948;2023-05-29T15:05:28;29.70;48.10
3994;DHT22;2011;48.238;13.948;2023-05-29T15:07:55;29.70;48.40
3994;DHT22;2011;48.238;13.948;2023-05-29T15:10:23;29.90;48.50
3994;DHT22;2011;48.238;13.948;2023-05-29T15:12:50;30.10;47.10
3994;DHT22;2011;48.238;13.948;2023-05-29T15:15:23;30.20;46.30
3994;DHT22;2011;48.238;13.948;2023-05-29T15:17:51;30.20;46.60
3994;DHT22;2011;48.238;13.948;2023-05-29T15:20:21;30.20;46.60
3994;DHT22;2011;48.238;13.948;2023-05-29T15:22:48;30.30;46.50
3994;DHT22;2011;48.238;13.948;2023-05-29T15:25:16;30.20;45.50
3994;DHT22;2011;48.238;13.948;2023-05-29T15:27:43;30.00;45.90
3994;DHT22;2011;48.238;13.948;2023-05-29T15:30:11;29.70;46.00
3994;DHT22;2011;48.238;13.948;2023-05-29T15:32:40;29.70;46.70
3994;DHT22;2011;48.238;13.948;2023-05-29T15:35:08;29.60;45.90
3994;DHT22;2011;48.238;13.948;2023-05-29T15:37:35;29.70;45.90
3994;DHT22;2011;48.238;13.948;2023-05-29T15:40:03;29.60;45.90
3994;DHT22;2011;48.238;13.948;2023-05-29T15:42:31;29.60;46.10
3994;DHT22;2011;48.238;13.948;2023-05-29T15:44:58;29.80;46.90
3994;DHT22;2011;48.238;13.948;2023-05-29T15:47:25;30.10;46.60
3994;DHT22;2011;48.238;13.948;2023-05-29T15:49:53;30.40;48.30
3994;DHT22;2011;48.238;13.948;2023-05-29T15:52:20;30.60;47.60
3994;DHT22;2011;48.238;13.948;2023-05-29T15:54:47;30.80;47.90